Afon Alaw — 2FCZ7 — position and weather

sailwx.info

Track history (hours):
 
Tides and Currents Weather Stations Pressure Air Temp Water Temp Dewpoint Dewpoint Depression Visibility Wind Speed Wind Dir Waves Ship Positions

Afon Alaw

Last reported at 2014-Jun-29 03:16 UTC. Time now 2014-Aug-22 19:39 UTC.
Position S 33°02' E 017°58'.
Warning: this ship's position is 54 days out of date.

Length 25 m; draft 2.9 m.

Type: Tug. MMSI: 235090202.

Date/timePositionNaut miles runAvg speedWind from/ knotsBaromVisibWave heightAir tempDewpointWater temp
2014-Jun-29 03:16S 33°02' E 017°58'0 0.0
2014-Jun-29 02:33S 33°02' E 017°58'48 1.2
2014-Jun-27 11:18S 33°45' E 018°23'4 5.3
2014-Jun-27 10:31S 33°48' E 018°25'5 5.7
2014-Jun-27 09:33S 33°53' E 018°26'2 1.7
2014-Jun-27 08:34S 33°55' E 018°27'0 0.0
2014-Jun-27 07:34S 33°55' E 018°27'0 0.0
2014-Jun-27 06:34S 33°55' E 018°27'0 0.0
2014-Jun-27 05:34S 33°55' E 018°27'0 0.0
2014-Jun-26 15:33S 33°55' E 018°27'0 0.0
2014-Jun-26 14:33S 33°55' E 018°27'0 0.0
2014-Jun-26 13:34S 33°55' E 018°27'0 0.0
2014-Jun-26 12:34S 33°55' E 018°27'0 0.0
2014-Jun-26 11:34S 33°55' E 018°27'0 0.0
2014-Jun-26 10:33S 33°55' E 018°27'0 0.0
2014-Jun-26 09:33S 33°55' E 018°27'0 0.0
2014-Jun-26 08:33S 33°55' E 018°27'0 0.0
2014-Jun-26 07:33S 33°55' E 018°27'0 0.0
2014-Jun-26 06:34S 33°55' E 018°27'0 0.0
2014-Jun-26 05:33S 33°55' E 018°27'0 0.0
2014-Jun-26 04:33S 33°55' E 018°27'0 0.0
2014-Jun-26 03:34S 33°55' E 018°27'0 0.0
2014-Jun-26 02:34S 33°55' E 018°27'0 0.0
2014-Jun-26 01:34S 33°55' E 018°27'0 0.0
2014-Jun-26 00:34S 33°55' E 018°27'0 0.0
2014-Jun-25 23:34S 33°55' E 018°27'0 0.0
2014-Jun-25 22:34S 33°55' E 018°27'0 0.0
2014-Jun-25 21:33S 33°55' E 018°27'0 0.0
2014-Jun-25 20:34S 33°55' E 018°27'0 0.0
2014-Jun-25 19:34S 33°55' E 018°27'0 0.0
2014-Jun-25 18:34S 33°55' E 018°27'0 0.0
2014-Jun-25 17:34S 33°55' E 018°27'0 0.0
2014-Jun-25 16:34S 33°55' E 018°27'0 0.0
2014-Jun-25 15:33S 33°55' E 018°27'0 0.0
2014-Jun-25 14:34S 33°55' E 018°27'0 0.0
2014-Jun-25 13:34S 33°55' E 018°27'0 0.0
2014-Jun-25 12:34S 33°55' E 018°27'0 0.0
2014-Jun-25 11:34S 33°55' E 018°27'0 0.0
2014-Jun-25 10:34S 33°55' E 018°27'0 0.0
2014-Jun-25 09:34S 33°55' E 018°27'0 0.0
2014-Jun-25 08:33S 33°55' E 018°27'0 0.0
2014-Jun-25 07:34S 33°55' E 018°27'0 0.0
2014-Jun-25 06:34S 33°55' E 018°27'0 0.0
2014-Jun-25 05:34S 33°55' E 018°27'0 0.0
2014-Jun-25 04:33S 33°55' E 018°27'0 0.0
2014-Jun-25 03:34S 33°55' E 018°27'0 0.0
2014-Jun-25 02:34S 33°55' E 018°27'0 0.0
2014-Jun-25 01:34S 33°55' E 018°27'0 0.0
2014-Jun-25 00:33S 33°55' E 018°27'0 0.0
2014-Jun-24 23:33S 33°55' E 018°27'0 0.0
2014-Jun-24 22:34S 33°55' E 018°27'0 0.0
2014-Jun-24 21:34S 33°55' E 018°27'0 0.0
2014-Jun-24 20:34S 33°55' E 018°27'0 0.0
2014-Jun-24 19:34S 33°55' E 018°27'0 0.0
2014-Jun-24 18:34S 33°55' E 018°27'0 0.0
2014-Jun-24 17:34S 33°55' E 018°27'0 0.0
2014-Jun-24 16:34S 33°55' E 018°27'0 0.0
2014-Jun-24 15:33S 33°55' E 018°27'0 0.5
2014-Jun-24 14:33S 33°55' E 018°26'0 0.0
2014-Jun-24 13:34S 33°55' E 018°26'0 0.0
2014-Jun-24 12:34S 33°55' E 018°26'0 0.0
2014-Jun-24 11:34S 33°55' E 018°26'0 0.0
2014-Jun-24 10:33S 33°55' E 018°26'0 0.0
2014-Jun-24 09:33S 33°55' E 018°26'0 0.0
2014-Jun-24 08:33S 33°55' E 018°26'0 0.0
2014-Jun-24 07:33S 33°55' E 018°26'0 0.0
2014-Jun-24 06:33S 33°55' E 018°26'0 0.0
2014-Jun-24 05:33S 33°55' E 018°26'0 0.0
2014-Jun-24 04:33S 33°55' E 018°26'0 0.0
2014-Jun-24 03:33S 33°55' E 018°26'0 0.0
2014-Jun-24 02:34S 33°55' E 018°26'0 0.0
2014-Jun-24 01:34S 33°55' E 018°26'0 0.0
2014-Jun-24 00:34S 33°55' E 018°26'0 0.0
2014-Jun-23 23:33S 33°55' E 018°26'0 0.0
2014-Jun-23 22:33S 33°55' E 018°26'0 0.0
2014-Jun-23 21:34S 33°55' E 018°26'0 0.0
2014-Jun-23 20:34S 33°55' E 018°26'0 0.0
2014-Jun-23 19:33S 33°55' E 018°26'0 0.0
2014-Jun-23 18:34S 33°55' E 018°26'0 0.0
2014-Jun-23 17:34S 33°55' E 018°26'0 0.0
2014-Jun-23 16:34S 33°55' E 018°26'0 0.0
2014-Jun-23 15:34S 33°55' E 018°26'0 0.0
2014-Jun-23 14:33S 33°55' E 018°26'0 0.0
2014-Jun-23 12:34S 33°55' E 018°26'0 0.0
2014-Jun-23 11:34S 33°55' E 018°26'0 0.0
2014-Jun-23 10:34S 33°55' E 018°26'0 0.0
2014-Jun-23 09:33S 33°55' E 018°26'0 0.0
2014-Jun-23 08:34S 33°55' E 018°26'0 0.0
2014-Jun-23 07:33S 33°55' E 018°26'0 0.0
2014-Jun-23 06:33S 33°55' E 018°26'0 0.0
2014-Jun-23 05:33S 33°55' E 018°26'0 0.0
2014-Jun-23 04:34S 33°55' E 018°26'0 0.0
2014-Jun-23 03:33S 33°55' E 018°26'0 0.0
2014-Jun-23 02:33S 33°55' E 018°26'0 0.0
2014-Jun-23 01:33S 33°55' E 018°26'0 0.0
2014-Jun-23 00:33S 33°55' E 018°26'0 0.0
2014-Jun-22 23:33S 33°55' E 018°26'0 0.0
2014-Jun-22 22:33S 33°55' E 018°26'0 0.0
2014-Jun-22 21:34S 33°55' E 018°26'0 0.0
2014-Jun-22 20:34S 33°55' E 018°26'0 0.0
2014-Jun-22 19:33S 33°55' E 018°26'0 0.0
2014-Jun-22 18:33S 33°55' E 018°26'0 0.0
2014-Jun-22 17:34S 33°55' E 018°26'0 0.0
2014-Jun-22 16:34S 33°55' E 018°26'0 0.0
2014-Jun-22 15:33S 33°55' E 018°26'0 0.0
2014-Jun-22 14:34S 33°55' E 018°26'1 0.5
2014-Jun-22 13:34S 33°55' E 018°27'0 0.0
2014-Jun-22 12:34S 33°55' E 018°27'0 0.0
2014-Jun-22 11:33S 33°55' E 018°27'0 0.0
2014-Jun-22 10:34S 33°55' E 018°27'0 0.0
2014-Jun-22 09:34S 33°55' E 018°27'0 0.0
2014-Jun-22 08:34S 33°55' E 018°27'0 0.0
2014-Jun-22 07:34S 33°55' E 018°27'0 0.0
2014-Jun-22 06:34S 33°55' E 018°27'0 0.0
2014-Jun-22 05:34S 33°55' E 018°27'0 0.0
2014-Jun-22 04:33S 33°55' E 018°27'0 0.0
2014-Jun-22 03:34S 33°55' E 018°27'0 0.0
2014-Jun-22 02:34S 33°55' E 018°27'0 0.0
2014-Jun-22 01:34S 33°55' E 018°27'0 0.0
2014-Jun-22 00:34S 33°55' E 018°27'0 0.0
2014-Jun-21 23:34S 33°55' E 018°27'0 0.0
2014-Jun-21 21:34S 33°55' E 018°27'0 0.0
2014-Jun-21 20:34S 33°55' E 018°27'0 0.0
2014-Jun-21 19:34S 33°55' E 018°27'0 0.0
2014-Jun-21 18:34S 33°55' E 018°27'0 0.0
2014-Jun-21 17:33S 33°55' E 018°27'0 0.0
2014-Jun-21 16:34S 33°55' E 018°27'0 0.0
2014-Jun-21 15:33S 33°55' E 018°27'0 0.0
2014-Jun-21 14:34S 33°55' E 018°27'0 0.0
2014-Jun-21 13:34S 33°55' E 018°27'0 0.0
2014-Jun-21 12:34S 33°55' E 018°27'0 0.0
2014-Jun-21 11:33S 33°55' E 018°27'0 0.0
2014-Jun-21 10:34S 33°55' E 018°27'0 0.0
2014-Jun-21 09:34S 33°55' E 018°27'0 0.0
2014-Jun-21 08:34S 33°55' E 018°27'0 0.0
2014-Jun-21 07:34S 33°55' E 018°27'0 0.0
2014-Jun-21 06:34S 33°55' E 018°27'0 0.0
2014-Jun-21 05:34S 33°55' E 018°27'0 0.0
2014-Jun-21 04:34S 33°55' E 018°27'0 0.0
2014-Jun-21 03:34S 33°55' E 018°27'0 0.0
2014-Jun-21 02:33S 33°55' E 018°27'0 0.0
2014-Jun-21 01:34S 33°55' E 018°27'0 0.0
2014-Jun-21 00:33S 33°55' E 018°27'0 0.0
2014-Jun-20 23:34S 33°55' E 018°27'0 0.0
2014-Jun-20 22:34S 33°55' E 018°27'0 0.0
2014-Jun-20 21:34S 33°55' E 018°27'0 0.0
2014-Jun-20 20:34S 33°55' E 018°27'0 0.0
2014-Jun-20 19:34S 33°55' E 018°27'0 0.0
2014-Jun-20 18:34S 33°55' E 018°27'0 0.0
2014-Jun-20 17:34S 33°55' E 018°27'0 0.0
2014-Jun-20 16:34S 33°55' E 018°27'0 0.0
2014-Jun-20 15:34S 33°55' E 018°27'0 0.0
2014-Jun-20 14:33S 33°55' E 018°27'0 0.0
2014-Jun-20 13:33S 33°55' E 018°27'0 0.4
2014-Jun-20 12:34S 33°55' E 018°27'1 1.2
2014-Jun-20 11:34S 33°54' E 018°27'5 4.8
2014-Jun-20 10:33S 33°52' E 018°21'7 7.0
2014-Jun-20 09:29S 33°48' E 018°14'  
Track history (hours):
 
Tides and Currents Weather Stations Pressure Air Temp Water Temp Dewpoint Dewpoint Depression Visibility Wind Speed Wind Dir Waves Ship Positions

Afon Alaw

Last reported at 2014-Jun-29 03:16 UTC. Time now 2014-Aug-22 19:39 UTC.
Position S 33°02' E 017°58'.
Warning: this ship's position is 54 days out of date.

Length 25 m; draft 2.9 m.

Type: Tug. MMSI: 235090202.

Date/timePositionNaut miles runAvg speedWind from/ knotsBaromVisibWave heightAir tempDewpointWater temp
2014-Jun-29 03:16S 33°02' E 017°58'0 0.0
2014-Jun-29 02:33S 33°02' E 017°58'48 1.2
2014-Jun-27 11:18S 33°45' E 018°23'4 5.3
2014-Jun-27 10:31S 33°48' E 018°25'5 5.7
2014-Jun-27 09:33S 33°53' E 018°26'2 1.7
2014-Jun-27 08:34S 33°55' E 018°27'0 0.0
2014-Jun-27 07:34S 33°55' E 018°27'0 0.0
2014-Jun-27 06:34S 33°55' E 018°27'0 0.0
2014-Jun-27 05:34S 33°55' E 018°27'0 0.0
2014-Jun-26 15:33S 33°55' E 018°27'0 0.0
2014-Jun-26 14:33S 33°55' E 018°27'0 0.0
2014-Jun-26 13:34S 33°55' E 018°27'0 0.0
2014-Jun-26 12:34S 33°55' E 018°27'0 0.0
2014-Jun-26 11:34S 33°55' E 018°27'0 0.0
2014-Jun-26 10:33S 33°55' E 018°27'0 0.0
2014-Jun-26 09:33S 33°55' E 018°27'0 0.0
2014-Jun-26 08:33S 33°55' E 018°27'0 0.0
2014-Jun-26 07:33S 33°55' E 018°27'0 0.0
2014-Jun-26 06:34S 33°55' E 018°27'0 0.0
2014-Jun-26 05:33S 33°55' E 018°27'0 0.0
2014-Jun-26 04:33S 33°55' E 018°27'0 0.0
2014-Jun-26 03:34S 33°55' E 018°27'0 0.0
2014-Jun-26 02:34S 33°55' E 018°27'0 0.0
2014-Jun-26 01:34S 33°55' E 018°27'0 0.0
2014-Jun-26 00:34S 33°55' E 018°27'0 0.0
2014-Jun-25 23:34S 33°55' E 018°27'0 0.0
2014-Jun-25 22:34S 33°55' E 018°27'0 0.0
2014-Jun-25 21:33S 33°55' E 018°27'0 0.0
2014-Jun-25 20:34S 33°55' E 018°27'0 0.0
2014-Jun-25 19:34S 33°55' E 018°27'0 0.0
2014-Jun-25 18:34S 33°55' E 018°27'0 0.0
2014-Jun-25 17:34S 33°55' E 018°27'0 0.0
2014-Jun-25 16:34S 33°55' E 018°27'0 0.0
2014-Jun-25 15:33S 33°55' E 018°27'0 0.0
2014-Jun-25 14:34S 33°55' E 018°27'0 0.0
2014-Jun-25 13:34S 33°55' E 018°27'0 0.0
2014-Jun-25 12:34S 33°55' E 018°27'0 0.0
2014-Jun-25 11:34S 33°55' E 018°27'0 0.0
2014-Jun-25 10:34S 33°55' E 018°27'0 0.0
2014-Jun-25 09:34S 33°55' E 018°27'0 0.0
2014-Jun-25 08:33S 33°55' E 018°27'0 0.0
2014-Jun-25 07:34S 33°55' E 018°27'0 0.0
2014-Jun-25 06:34S 33°55' E 018°27'0 0.0
2014-Jun-25 05:34S 33°55' E 018°27'0 0.0
2014-Jun-25 04:33S 33°55' E 018°27'0 0.0
2014-Jun-25 03:34S 33°55' E 018°27'0 0.0
2014-Jun-25 02:34S 33°55' E 018°27'0 0.0
2014-Jun-25 01:34S 33°55' E 018°27'0 0.0
2014-Jun-25 00:33S 33°55' E 018°27'0 0.0
2014-Jun-24 23:33S 33°55' E 018°27'0 0.0
2014-Jun-24 22:34S 33°55' E 018°27'0 0.0
2014-Jun-24 21:34S 33°55' E 018°27'0 0.0
2014-Jun-24 20:34S 33°55' E 018°27'0 0.0
2014-Jun-24 19:34S 33°55' E 018°27'0 0.0
2014-Jun-24 18:34S 33°55' E 018°27'0 0.0
2014-Jun-24 17:34S 33°55' E 018°27'0 0.0
2014-Jun-24 16:34S 33°55' E 018°27'0 0.0
2014-Jun-24 15:33S 33°55' E 018°27'0 0.5
2014-Jun-24 14:33S 33°55' E 018°26'0 0.0
2014-Jun-24 13:34S 33°55' E 018°26'0 0.0
2014-Jun-24 12:34S 33°55' E 018°26'0 0.0
2014-Jun-24 11:34S 33°55' E 018°26'0 0.0
2014-Jun-24 10:33S 33°55' E 018°26'0 0.0
2014-Jun-24 09:33S 33°55' E 018°26'0 0.0
2014-Jun-24 08:33S 33°55' E 018°26'0 0.0
2014-Jun-24 07:33S 33°55' E 018°26'0 0.0
2014-Jun-24 06:33S 33°55' E 018°26'0 0.0
2014-Jun-24 05:33S 33°55' E 018°26'0 0.0
2014-Jun-24 04:33S 33°55' E 018°26'0 0.0
2014-Jun-24 03:33S 33°55' E 018°26'0 0.0
2014-Jun-24 02:34S 33°55' E 018°26'0 0.0
2014-Jun-24 01:34S 33°55' E 018°26'0 0.0
2014-Jun-24 00:34S 33°55' E 018°26'0 0.0
2014-Jun-23 23:33S 33°55' E 018°26'0 0.0
2014-Jun-23 22:33S 33°55' E 018°26'0 0.0
2014-Jun-23 21:34S 33°55' E 018°26'0 0.0
2014-Jun-23 20:34S 33°55' E 018°26'0 0.0
2014-Jun-23 19:33S 33°55' E 018°26'0 0.0
2014-Jun-23 18:34S 33°55' E 018°26'0 0.0
2014-Jun-23 17:34S 33°55' E 018°26'0 0.0
2014-Jun-23 16:34S 33°55' E 018°26'0 0.0
2014-Jun-23 15:34S 33°55' E 018°26'0 0.0
2014-Jun-23 14:33S 33°55' E 018°26'0 0.0
2014-Jun-23 12:34S 33°55' E 018°26'0 0.0
2014-Jun-23 11:34S 33°55' E 018°26'0 0.0
2014-Jun-23 10:34S 33°55' E 018°26'0 0.0
2014-Jun-23 09:33S 33°55' E 018°26'0 0.0
2014-Jun-23 08:34S 33°55' E 018°26'0 0.0
2014-Jun-23 07:33S 33°55' E 018°26'0 0.0
2014-Jun-23 06:33S 33°55' E 018°26'0 0.0
2014-Jun-23 05:33S 33°55' E 018°26'0 0.0
2014-Jun-23 04:34S 33°55' E 018°26'0 0.0
2014-Jun-23 03:33S 33°55' E 018°26'0 0.0
2014-Jun-23 02:33S 33°55' E 018°26'0 0.0
2014-Jun-23 01:33S 33°55' E 018°26'0 0.0
2014-Jun-23 00:33S 33°55' E 018°26'0 0.0
2014-Jun-22 23:33S 33°55' E 018°26'0 0.0
2014-Jun-22 22:33S 33°55' E 018°26'0 0.0
2014-Jun-22 21:34S 33°55' E 018°26'0 0.0
2014-Jun-22 20:34S 33°55' E 018°26'0 0.0
2014-Jun-22 19:33S 33°55' E 018°26'0 0.0
2014-Jun-22 18:33S 33°55' E 018°26'0 0.0
2014-Jun-22 17:34S 33°55' E 018°26'0 0.0
2014-Jun-22 16:34S 33°55' E 018°26'0 0.0
2014-Jun-22 15:33S 33°55' E 018°26'0 0.0
2014-Jun-22 14:34S 33°55' E 018°26'1 0.5
2014-Jun-22 13:34S 33°55' E 018°27'0 0.0
2014-Jun-22 12:34S 33°55' E 018°27'0 0.0
2014-Jun-22 11:33S 33°55' E 018°27'0 0.0
2014-Jun-22 10:34S 33°55' E 018°27'0 0.0
2014-Jun-22 09:34S 33°55' E 018°27'0 0.0
2014-Jun-22 08:34S 33°55' E 018°27'0 0.0
2014-Jun-22 07:34S 33°55' E 018°27'0 0.0
2014-Jun-22 06:34S 33°55' E 018°27'0 0.0
2014-Jun-22 05:34S 33°55' E 018°27'0 0.0
2014-Jun-22 04:33S 33°55' E 018°27'0 0.0
2014-Jun-22 03:34S 33°55' E 018°27'0 0.0
2014-Jun-22 02:34S 33°55' E 018°27'0 0.0
2014-Jun-22 01:34S 33°55' E 018°27'0 0.0
2014-Jun-22 00:34S 33°55' E 018°27'0 0.0
2014-Jun-21 23:34S 33°55' E 018°27'0 0.0
2014-Jun-21 21:34S 33°55' E 018°27'0 0.0
2014-Jun-21 20:34S 33°55' E 018°27'0 0.0
2014-Jun-21 19:34S 33°55' E 018°27'0 0.0
2014-Jun-21 18:34S 33°55' E 018°27'0 0.0
2014-Jun-21 17:33S 33°55' E 018°27'0 0.0
2014-Jun-21 16:34S 33°55' E 018°27'0 0.0
2014-Jun-21 15:33S 33°55' E 018°27'0 0.0
2014-Jun-21 14:34S 33°55' E 018°27'0 0.0
2014-Jun-21 13:34S 33°55' E 018°27'0 0.0
2014-Jun-21 12:34S 33°55' E 018°27'0 0.0
2014-Jun-21 11:33S 33°55' E 018°27'0 0.0
2014-Jun-21 10:34S 33°55' E 018°27'0 0.0
2014-Jun-21 09:34S 33°55' E 018°27'0 0.0
2014-Jun-21 08:34S 33°55' E 018°27'0 0.0
2014-Jun-21 07:34S 33°55' E 018°27'0 0.0
2014-Jun-21 06:34S 33°55' E 018°27'0 0.0
2014-Jun-21 05:34S 33°55' E 018°27'0 0.0
2014-Jun-21 04:34S 33°55' E 018°27'0 0.0
2014-Jun-21 03:34S 33°55' E 018°27'0 0.0
2014-Jun-21 02:33S 33°55' E 018°27'0 0.0
2014-Jun-21 01:34S 33°55' E 018°27'0 0.0
2014-Jun-21 00:33S 33°55' E 018°27'0 0.0
2014-Jun-20 23:34S 33°55' E 018°27'0 0.0
2014-Jun-20 22:34S 33°55' E 018°27'0 0.0
2014-Jun-20 21:34S 33°55' E 018°27'0 0.0
2014-Jun-20 20:34S 33°55' E 018°27'0 0.0
2014-Jun-20 19:34S 33°55' E 018°27'0 0.0
2014-Jun-20 18:34S 33°55' E 018°27'0 0.0
2014-Jun-20 17:34S 33°55' E 018°27'0 0.0
2014-Jun-20 16:34S 33°55' E 018°27'0 0.0
2014-Jun-20 15:34S 33°55' E 018°27'0 0.0
2014-Jun-20 14:33S 33°55' E 018°27'0 0.0
2014-Jun-20 13:33S 33°55' E 018°27'0 0.4
2014-Jun-20 12:34S 33°55' E 018°27'1 1.2
2014-Jun-20 11:34S 33°54' E 018°27'5 4.8
2014-Jun-20 10:33S 33°52' E 018°21'7 7.0
2014-Jun-20 09:29S 33°48' E 018°14'  

Dump ship's entire track history